Time;durP1;ratioP1;P1;durP2;ratioP2;P2;SDS_P1;SDS_P2;PMS_P1;PMS_P2;Temp;Humidity;BMP_temperature;BMP_pressure;BME280_temperature;BME280_humidity;BME280_pressure;Samples;Min_cycle;Max_cycle;Signal;HPM_P1;HPM_P2
2022/07/16 00:02:54;;;;;;;5.53;3.58;;;;;;;;;;7745565;23;20031;-56
2022/07/16 00:05:54;;;;;;;6.88;3.83;;;;;;;;;;7744887;23;20074;-52
2022/07/16 00:08:55;;;;;;;7.50;3.97;;;;;;;;;;7746121;23;20126;-53
2022/07/16 00:11:56;;;;;;;5.90;3.33;;;;;;;;;;7744715;23;20027;-55
2022/07/16 00:14:56;;;;;;;9.13;4.05;;;;;;;;;;7745445;23;20090;-56
2022/07/16 00:21:17;;;;;;;7.28;4.20;;;;;;;;;;7745781;23;20016;-54
2022/07/16 00:24:19;;;;;;;10.35;4.15;;;;;;;;;;7745410;23;20476;-57
2022/07/16 00:27:19;;;;;;;7.05;3.80;;;;;;;;;;7745101;23;20022;-57
2022/07/16 00:30:20;;;;;;;5.97;3.33;;;;;;;;;;7745592;23;20169;-58
2022/07/16 00:33:20;;;;;;;8.27;3.60;;;;;;;;;;7745826;23;20051;-57
2022/07/16 00:36:21;;;;;;;5.80;3.60;;;;;;;;;;7744654;23;20140;-58
2022/07/16 00:39:22;;;;;;;9.07;3.85;;;;;;;;;;7747567;23;20018;-58
2022/07/16 00:42:22;;;;;;;6.32;3.45;;;;;;;;;;7746903;23;20020;-52
2022/07/16 00:45:23;;;;;;;6.05;3.25;;;;;;;;;;7747765;23;20278;-59
2022/07/16 00:48:23;;;;;;;7.05;3.50;;;;;;;;;;7746813;23;20347;-53
2022/07/16 00:51:25;;;;;;;9.65;3.83;;;;;;;;;;7747499;23;20126;-57
2022/07/16 00:54:26;;;;;;;7.38;3.50;;;;;;;;;;7748123;23;20103;-57
2022/07/16 00:57:27;;;;;;;6.35;3.47;;;;;;;;;;7747039;23;20478;-51
2022/07/16 01:00:28;;;;;;;8.20;3.80;;;;;;;;;;7747753;23;20013;-59
2022/07/16 01:03:30;;;;;;;6.10;3.63;;;;;;;;;;7748044;23;20016;-57
2022/07/16 01:06:32;;;;;;;6.15;3.72;;;;;;;;;;7747348;23;20027;-57
2022/07/16 01:09:33;;;;;;;7.45;3.90;;;;;;;;;;7748156;23;20023;-54
2022/07/16 01:12:34;;;;;;;8.77;3.90;;;;;;;;;;7747601;23;20040;-55
2022/07/16 01:15:35;;;;;;;8.57;3.58;;;;;;;;;;7747520;23;20253;-58
2022/07/16 01:18:37;;;;;;;9.68;3.58;;;;;;;;;;7747623;23;20027;-52
2022/07/16 01:21:39;;;;;;;7.65;3.75;;;;;;;;;;7747686;23;20336;-57
2022/07/16 01:24:40;;;;;;;9.45;4.65;;;;;;;;;;7748619;23;20070;-57
2022/07/16 01:27:40;;;;;;;10.43;3.95;;;;;;;;;;7746446;23;20103;-58
2022/07/16 01:30:41;;;;;;;9.90;3.65;;;;;;;;;;7746100;23;20050;-57
2022/07/16 01:33:42;;;;;;;8.43;4.15;;;;;;;;;;7747889;23;20012;-51
2022/07/16 01:37:03;;;;;;;7.72;4.00;;;;;;;;;;7746963;22;20035;-55
2022/07/16 01:40:04;;;;;;;8.02;3.85;;;;;;;;;;7748459;23;20401;-55
2022/07/16 01:43:17;;;;;;;6.30;3.67;;;;;;;;;;7745708;23;20047;-58
2022/07/16 01:46:18;;;;;;;6.15;3.33;;;;;;;;;;7745090;23;20062;-58
2022/07/16 01:49:18;;;;;;;11.15;4.28;;;;;;;;;;7747198;23;20448;-54
2022/07/16 01:52:21;;;;;;;9.20;3.97;;;;;;;;;;7747978;23;20083;-57
2022/07/16 01:58:31;;;;;;;7.60;4.00;;;;;;;;;;7662442;23;20237;-55
2022/07/16 02:01:31;;;;;;;10.02;4.13;;;;;;;;;;7674573;23;20100;-56
2022/07/16 02:04:33;;;;;;;8.48;4.20;;;;;;;;;;7674471;23;20104;-58
2022/07/16 02:07:33;;;;;;;9.95;3.70;;;;;;;;;;7675846;23;20032;-56
2022/07/16 02:10:34;;;;;;;7.43;3.80;;;;;;;;;;7676186;23;20017;-55
2022/07/16 02:13:35;;;;;;;7.60;3.78;;;;;;;;;;7675076;23;20100;-54
2022/07/16 02:16:36;;;;;;;7.60;3.92;;;;;;;;;;7673361;23;20028;-52
2022/07/16 02:19:36;;;;;;;7.75;4.22;;;;;;;;;;7674528;23;20360;-56
2022/07/16 02:22:38;;;;;;;7.25;4.05;;;;;;;;;;7675085;23;20128;-52
2022/07/16 02:25:40;;;;;;;7.45;3.97;;;;;;;;;;7673512;23;20115;-58
2022/07/16 02:28:40;;;;;;;9.10;4.35;;;;;;;;;;7673693;23;20013;-57
2022/07/16 02:31:41;;;;;;;8.27;4.22;;;;;;;;;;7674492;23;20314;-58
2022/07/16 02:34:42;;;;;;;10.05;4.60;;;;;;;;;;7674674;23;20444;-57
2022/07/16 02:37:42;;;;;;;8.85;4.25;;;;;;;;;;7674454;23;20024;-56
2022/07/16 02:40:43;;;;;;;8.77;4.78;;;;;;;;;;7673318;23;20104;-52
2022/07/16 02:43:44;;;;;;;7.75;4.30;;;;;;;;;;7672730;23;20048;-57
2022/07/16 02:46:44;;;;;;;10.02;4.90;;;;;;;;;;7673874;23;20389;-50
2022/07/16 02:49:45;;;;;;;11.55;4.70;;;;;;;;;;7674797;23;20337;-56
2022/07/16 02:52:45;;;;;;;6.93;4.25;;;;;;;;;;7675743;23;20021;-51
2022/07/16 02:55:46;;;;;;;7.93;4.25;;;;;;;;;;7669818;23;20020;-53
2022/07/16 02:58:46;;;;;;;8.65;4.20;;;;;;;;;;7668057;23;20017;-54
2022/07/16 03:01:47;;;;;;;9.43;4.25;;;;;;;;;;7668636;23;20027;-56
2022/07/16 03:04:48;;;;;;;7.65;4.93;;;;;;;;;;7670826;23;20031;-56
2022/07/16 03:07:49;;;;;;;9.10;4.67;;;;;;;;;;7667555;23;20471;-58
2022/07/16 03:10:50;;;;;;;8.65;4.72;;;;;;;;;;7667025;23;20111;-52
2022/07/16 03:13:51;;;;;;;9.97;5.13;;;;;;;;;;7667355;23;20470;-54
2022/07/16 03:16:51;;;;;;;9.77;4.80;;;;;;;;;;7667250;23;20104;-55
2022/07/16 03:19:52;;;;;;;11.55;4.53;;;;;;;;;;7669346;23;20068;-58
2022/07/16 03:22:52;;;;;;;8.68;4.32;;;;;;;;;;7670335;23;20784;-56
2022/07/16 03:25:53;;;;;;;8.88;4.68;;;;;;;;;;7666666;23;20761;-55
2022/07/16 03:28:53;;;;;;;10.35;4.95;;;;;;;;;;7669785;23;20019;-55
2022/07/16 03:31:54;;;;;;;11.13;4.95;;;;;;;;;;7665018;23;20179;-56
2022/07/16 03:34:55;;;;;;;10.88;4.82;;;;;;;;;;7667273;23;20147;-54
2022/07/16 03:41:15;;;;;;;13.27;5.35;;;;;;;;;;7667533;23;20025;-56
2022/07/16 03:44:15;;;;;;;10.75;5.05;;;;;;;;;;7642421;23;20444;-56
2022/07/16 03:47:16;;;;;;;8.57;5.40;;;;;;;;;;7666579;23;20519;-57
2022/07/16 03:50:17;;;;;;;13.50;4.50;;;;;;;;;;7667171;23;20028;-57
2022/07/16 03:53:17;;;;;;;8.57;4.80;;;;;;;;;;7665153;23;20024;-57
2022/07/16 03:56:18;;;;;;;11.00;5.07;;;;;;;;;;7666131;23;20064;-55
2022/07/16 03:59:19;;;;;;;10.23;5.35;;;;;;;;;;7664714;23;20017;-56
2022/07/16 04:02:19;;;;;;;9.90;5.00;;;;;;;;;;7665897;23;20313;-54
2022/07/16 04:05:20;;;;;;;8.95;5.22;;;;;;;;;;7662061;23;20021;-54
2022/07/16 04:08:21;;;;;;;10.80;5.93;;;;;;;;;;7665596;23;20100;-50
2022/07/16 04:11:21;;;;;;;9.93;5.78;;;;;;;;;;7666485;23;20017;-57
2022/07/16 04:14:22;;;;;;;11.90;6.45;;;;;;;;;;7677567;23;20021;-57
2022/07/16 04:17:22;;;;;;;14.15;5.75;;;;;;;;;;7665254;23;20064;-58
2022/07/16 04:20:23;;;;;;;12.82;6.38;;;;;;;;;;7671009;23;20456;-55
2022/07/16 04:23:23;;;;;;;11.15;6.35;;;;;;;;;;7670334;23;20104;-58
2022/07/16 04:26:24;;;;;;;12.85;6.85;;;;;;;;;;7670720;23;20100;-59
2022/07/16 04:29:25;;;;;;;13.18;6.82;;;;;;;;;;7672537;23;20179;-58
2022/07/16 04:32:25;;;;;;;12.00;6.90;;;;;;;;;;7673478;23;20449;-55
2022/07/16 04:35:26;;;;;;;14.20;7.80;;;;;;;;;;7662620;23;20020;-57
2022/07/16 04:38:26;;;;;;;15.65;7.88;;;;;;;;;;7672009;23;20136;-56
2022/07/16 04:41:27;;;;;;;15.52;7.65;;;;;;;;;;7671087;23;20017;-57
2022/07/16 04:44:27;;;;;;;15.23;8.32;;;;;;;;;;7670074;23;20100;-49
2022/07/16 04:47:28;;;;;;;13.80;7.80;;;;;;;;;;7671477;23;20019;-52
2022/07/16 04:50:28;;;;;;;12.82;8.02;;;;;;;;;;7671059;23;20099;-55
2022/07/16 04:53:29;;;;;;;14.43;8.18;;;;;;;;;;7670379;23;20088;-51
2022/07/16 04:56:30;;;;;;;14.43;8.07;;;;;;;;;;7670671;23;20017;-55
2022/07/16 04:59:49;;;;;;;12.85;7.65;;;;;;;;;;7668294;23;20025;-57
2022/07/16 05:02:56;;;;;;;14.38;7.93;;;;;;;;;;7671897;23;20103;-55
2022/07/16 05:05:56;;;;;;;18.08;8.50;;;;;;;;;;7671061;23;20020;-58
2022/07/16 05:08:57;;;;;;;10.85;7.38;;;;;;;;;;7670416;23;20025;-56
2022/07/16 05:11:57;;;;;;;14.82;8.38;;;;;;;;;;7677465;23;20096;-55
2022/07/16 05:14:58;;;;;;;13.75;7.78;;;;;;;;;;7670921;23;20021;-56
2022/07/16 05:17:59;;;;;;;16.05;8.00;;;;;;;;;;7669422;23;20377;-56
2022/07/16 05:20:59;;;;;;;12.50;7.85;;;;;;;;;;7670594;23;20048;-52
2022/07/16 05:24:00;;;;;;;14.30;8.30;;;;;;;;;;7671491;23;20351;-56
2022/07/16 05:27:01;;;;;;;14.00;8.20;;;;;;;;;;7673498;23;20726;-58
2022/07/16 05:30:03;;;;;;;16.87;8.67;;;;;;;;;;7684370;23;20031;-59
2022/07/16 05:33:04;;;;;;;;;;;;;;;;;;7674670;23;20343;-56
2022/07/16 05:36:04;;;;;;;14.95;8.50;;;;;;;;;;7671944;23;20308;-59
2022/07/16 05:39:05;;;;;;;24.42;9.20;;;;;;;;;;7672716;23;20032;-52
2022/07/16 05:42:05;;;;;;;14.98;8.23;;;;;;;;;;7667927;23;20096;-58
2022/07/16 05:45:07;;;;;;;16.13;9.20;;;;;;;;;;7667777;23;20021;-55
2022/07/16 05:48:08;;;;;;;16.55;8.93;;;;;;;;;;7666922;23;20075;-57
2022/07/16 05:51:09;;;;;;;13.80;7.82;;;;;;;;;;7667141;23;20104;-49
2022/07/16 05:54:09;;;;;;;15.43;8.25;;;;;;;;;;7669090;23;20059;-59
2022/07/16 05:57:10;;;;;;;15.43;7.95;;;;;;;;;;7666177;23;20024;-57
2022/07/16 06:00:12;;;;;;;18.85;8.63;;;;;;;;;;7665743;23;20040;-52
2022/07/16 06:03:12;;;;;;;14.70;7.68;;;;;;;;;;7667371;23;20096;-57
2022/07/16 06:06:13;;;;;;;14.75;7.57;;;;;;;;;;7665134;23;20048;-56
2022/07/16 06:09:14;;;;;;;13.48;7.88;;;;;;;;;;7664009;23;20091;-49
2022/07/16 06:12:15;;;;;;;15.80;7.93;;;;;;;;;;7664629;23;20060;-55
2022/07/16 06:15:15;;;;;;;14.68;8.10;;;;;;;;;;7666420;23;20028;-52
2022/07/16 06:18:16;;;;;;;11.30;7.03;;;;;;;;;;7670471;23;20084;-58
2022/07/16 06:21:17;;;;;;;12.55;7.07;;;;;;;;;;7669503;23;20096;-50
2022/07/16 06:24:19;;;;;;;14.63;7.60;;;;;;;;;;7641213;23;20024;-52
2022/07/16 06:27:19;;;;;;;12.38;6.97;;;;;;;;;;7663725;23;20692;-54
2022/07/16 06:30:20;;;;;;;13.40;6.38;;;;;;;;;;7668935;23;20080;-54
2022/07/16 06:33:21;;;;;;;14.73;6.85;;;;;;;;;;7665993;23;20055;-52
2022/07/16 06:36:21;;;;;;;12.65;6.90;;;;;;;;;;7663924;23;20388;-57
2022/07/16 06:39:23;;;;;;;12.95;6.85;;;;;;;;;;7664287;23;20021;-55
2022/07/16 06:42:23;;;;;;;12.27;6.28;;;;;;;;;;7665499;23;20024;-53
2022/07/16 06:45:24;;;;;;;14.32;6.82;;;;;;;;;;7666671;23;20020;-53
2022/07/16 06:48:24;;;;;;;16.45;6.50;;;;;;;;;;7663903;23;20092;-54
2022/07/16 06:51:26;;;;;;;12.20;5.65;;;;;;;;;;7664306;23;20025;-57
2022/07/16 06:54:26;;;;;;;11.85;5.38;;;;;;;;;;7667909;23;20466;-54
2022/07/16 06:57:27;;;;;;;10.90;4.93;;;;;;;;;;7665446;23;20025;-54
2022/07/16 07:00:27;;;;;;;12.57;5.32;;;;;;;;;;7667316;23;20585;-55
2022/07/16 07:03:28;;;;;;;12.73;5.10;;;;;;;;;;7667632;23;20017;-55
2022/07/16 07:06:29;;;;;;;7.28;3.75;;;;;;;;;;7668598;23;20013;-51
2022/07/16 07:09:29;;;;;;;8.17;3.17;;;;;;;;;;7679540;23;20099;-52
2022/07/16 07:12:31;;;;;;;10.17;4.07;;;;;;;;;;7669963;23;20081;-54
2022/07/16 07:15:32;;;;;;;8.85;3.78;;;;;;;;;;7667295;23;20095;-54
2022/07/16 07:18:33;;;;;;;6.45;3.65;;;;;;;;;;7662921;23;20032;-48
2022/07/16 07:21:33;;;;;;;10.45;4.25;;;;;;;;;;7665477;23;20341;-58
2022/07/16 07:24:34;;;;;;;8.00;3.90;;;;;;;;;;7666602;23;20021;-57
2022/07/16 07:27:35;;;;;;;10.55;3.90;;;;;;;;;;7664886;23;20342;-58
2022/07/16 07:30:35;;;;;;;8.63;3.28;;;;;;;;;;7665938;23;20352;-54
2022/07/16 07:33:39;;;;;;;7.83;3.50;;;;;;;;;;7667314;23;20444;-49
2022/07/16 07:36:40;;;;;;;8.68;3.22;;;;;;;;;;7665803;23;20091;-58
2022/07/16 07:39:40;;;;;;;14.57;3.97;;;;;;;;;;7677447;23;20043;-55
2022/07/16 07:42:41;;;;;;;8.18;3.25;;;;;;;;;;7667927;23;20095;-56
2022/07/16 07:45:41;;;;;;;10.20;3.90;;;;;;;;;;7664649;23;20021;-59
2022/07/16 07:48:42;;;;;;;11.75;4.72;;;;;;;;;;7663734;23;20021;-57
2022/07/16 07:51:42;;;;;;;10.50;4.23;;;;;;;;;;7667521;23;20023;-49
2022/07/16 07:54:43;;;;;;;10.07;4.37;;;;;;;;;;7666481;23;20013;-59
2022/07/16 07:57:44;;;;;;;7.00;3.50;;;;;;;;;;7664335;23;20368;-56
2022/07/16 08:00:44;;;;;;;8.50;3.70;;;;;;;;;;7663757;23;20017;-58
2022/07/16 08:03:45;;;;;;;7.07;2.80;;;;;;;;;;7664821;23;20028;-58
2022/07/16 08:06:45;;;;;;;6.77;3.13;;;;;;;;;;7666057;23;20104;-59
2022/07/16 08:09:46;;;;;;;6.20;2.60;;;;;;;;;;7665041;23;20021;-58
2022/07/16 08:12:47;;;;;;;9.30;3.23;;;;;;;;;;7666380;23;20147;-54
2022/07/16 08:15:47;;;;;;;5.33;2.80;;;;;;;;;;7666296;23;20023;-54
2022/07/16 08:18:48;;;;;;;5.43;2.63;;;;;;;;;;7664984;23;20104;-58
2022/07/16 08:21:49;;;;;;;9.53;2.77;;;;;;;;;;7664109;23;20021;-56
2022/07/16 08:28:08;;;;;;;5.70;2.50;;;;;;;;;;7664480;23;20064;-48
2022/07/16 08:31:09;;;;;;;5.90;2.20;;;;;;;;;;7665936;23;20091;-52
2022/07/16 08:34:10;;;;;;;5.90;2.13;;;;;;;;;;7670831;23;20021;-59
2022/07/16 08:37:12;;;;;;;5.30;2.50;;;;;;;;;;7671554;23;20475;-57
2022/07/16 08:40:20;;;;;;;6.05;2.33;;;;;;;;;;7677318;23;20448;-53
2022/07/16 08:43:20;;;;;;;9.40;2.28;;;;;;;;;;7663337;23;20328;-51
2022/07/16 08:46:21;;;;;;;5.37;2.37;;;;;;;;;;7666164;23;20103;-51
2022/07/16 08:49:24;;;;;;;5.50;2.33;;;;;;;;;;7671269;23;20035;-48
2022/07/16 08:52:26;;;;;;;5.50;2.30;;;;;;;;;;7671232;23;20045;-47
2022/07/16 08:55:28;;;;;;;5.50;2.13;;;;;;;;;;7669759;23;20017;-53
2022/07/16 08:58:31;;;;;;;4.03;2.22;;;;;;;;;;7670429;23;20040;-53
2022/07/16 09:01:32;;;;;;;6.05;2.17;;;;;;;;;;7671982;23;20024;-52
2022/07/16 09:04:33;;;;;;;7.07;2.50;;;;;;;;;;7673084;23;20055;-49
2022/07/16 09:07:34;;;;;;;6.60;2.20;;;;;;;;;;7671367;23;20092;-49
2022/07/16 09:10:37;;;;;;;7.13;2.42;;;;;;;;;;7672549;23;20100;-53
2022/07/16 09:13:37;;;;;;;5.95;2.22;;;;;;;;;;7673240;23;20087;-56
2022/07/16 09:16:50;;;;;;;5.77;2.00;;;;;;;;;;7672954;23;20082;-54
2022/07/16 09:19:51;;;;;;;4.75;1.98;;;;;;;;;;7671615;23;20013;-51
2022/07/16 09:22:51;;;;;;;4.73;2.17;;;;;;;;;;7671341;23;20025;-55
2022/07/16 09:25:57;;;;;;;6.93;2.10;;;;;;;;;;7647448;23;20056;-54
2022/07/16 09:29:02;;;;;;;4.07;1.95;;;;;;;;;;7674028;23;20119;-57
2022/07/16 09:32:03;;;;;;;6.43;2.00;;;;;;;;;;7672281;23;20092;-49
2022/07/16 09:35:11;;;;;;;8.03;2.13;;;;;;;;;;7670544;23;20336;-51
2022/07/16 09:38:12;;;;;;;4.93;1.92;;;;;;;;;;7671668;23;20539;-53
2022/07/16 09:41:14;;;;;;;6.80;2.05;;;;;;;;;;7672223;23;20096;-58
2022/07/16 09:44:20;;;;;;;4.80;1.98;;;;;;;;;;7673185;23;20344;-48
2022/07/16 09:47:22;;;;;;;6.38;2.00;;;;;;;;;;7674183;23;20099;-50
2022/07/16 09:50:22;;;;;;;4.95;2.00;;;;;;;;;;7672516;23;20024;-58
2022/07/16 09:53:26;;;;;;;4.93;2.30;;;;;;;;;;7671773;23;20013;-49
2022/07/16 09:56:28;;;;;;;5.68;2.28;;;;;;;;;;7669497;23;20017;-52
2022/07/16 09:59:29;;;;;;;4.47;1.92;;;;;;;;;;7672641;23;20100;-60
2022/07/16 10:02:30;;;;;;;3.50;1.80;;;;;;;;;;7667563;23;20021;-57
2022/07/16 10:05:31;;;;;;;4.40;2.03;;;;;;;;;;7670059;23;20741;-47
2022/07/16 10:08:32;;;;;;;4.73;2.03;;;;;;;;;;7671855;23;20020;-55
2022/07/16 10:11:33;;;;;;;6.43;1.93;;;;;;;;;;7670955;23;20656;-59
2022/07/16 10:14:42;;;;;;;5.95;2.20;;;;;;;;;;7672798;23;20028;-50
2022/07/16 10:17:43;;;;;;;3.67;1.50;;;;;;;;;;7671709;23;20091;-56
2022/07/16 10:20:44;;;;;;;6.77;1.73;;;;;;;;;;7671985;23;20116;-50
2022/07/16 10:23:50;;;;;;;4.13;1.70;;;;;;;;;;7642734;23;20028;-53
2022/07/16 10:27:37;;;;;;;3.58;1.70;;;;;;;;;;7672306;23;20021;-54
2022/07/16 10:30:37;;;;;;;4.25;1.95;;;;;;;;;;7663528;23;20028;-58
2022/07/16 10:33:38;;;;;;;7.07;2.00;;;;;;;;;;7672633;23;20025;-57
2022/07/16 10:36:48;;;;;;;3.90;1.90;;;;;;;;;;7672260;23;20021;-49
2022/07/16 10:40:03;;;;;;;4.90;2.10;;;;;;;;;;7670865;23;20013;-56
2022/07/16 10:43:15;;;;;;;6.53;2.33;;;;;;;;;;7671725;23;20369;-48
2022/07/16 10:46:24;;;;;;;;;;;;;;;;;;7671566;23;20017;-49
2022/07/16 10:49:28;;;;;;;4.88;2.22;;;;;;;;;;7672616;23;19943;-51
2022/07/16 10:52:43;;;;;;;4.28;2.13;;;;;;;;;;7671852;23;20051;-46
2022/07/16 10:55:44;;;;;;;5.80;2.30;;;;;;;;;;7671632;23;20024;-52
2022/07/16 10:58:45;;;;;;;7.03;2.40;;;;;;;;;;7670705;23;20281;-47
2022/07/16 11:01:48;;;;;;;5.00;2.05;;;;;;;;;;7671486;23;20055;-47
2022/07/16 11:04:52;;;;;;;5.90;2.13;;;;;;;;;;7672561;23;20550;-52
2022/07/16 11:07:53;;;;;;;4.18;2.08;;;;;;;;;;7668378;23;20446;-50
2022/07/16 11:10:54;;;;;;;5.67;2.33;;;;;;;;;;7654123;23;20017;-48
2022/07/16 11:13:54;;;;;;;4.63;2.27;;;;;;;;;;7666073;23;20100;-52
2022/07/16 11:16:56;;;;;;;6.70;2.53;;;;;;;;;;7664595;23;20023;-49
2022/07/16 11:20:00;;;;;;;6.13;2.40;;;;;;;;;;7662825;23;20076;-54
2022/07/16 11:23:07;;;;;;;7.20;2.22;;;;;;;;;;7663714;23;20486;-52
2022/07/16 11:26:10;;;;;;;7.28;2.28;;;;;;;;;;7664207;23;20147;-52
2022/07/16 11:29:10;;;;;;;4.78;2.30;;;;;;;;;;7659343;23;20017;-48
2022/07/16 11:32:15;;;;;;;8.33;2.73;;;;;;;;;;7664258;23;20328;-49
2022/07/16 11:35:16;;;;;;;3.47;2.10;;;;;;;;;;7664330;23;20029;-49
2022/07/16 11:38:25;;;;;;;7.10;2.27;;;;;;;;;;7659787;23;20348;-49
2022/07/16 11:41:25;;;;;;;5.72;2.03;;;;;;;;;;7670937;23;20225;-49
2022/07/16 11:44:32;;;;;;;5.10;2.40;;;;;;;;;;7664361;23;20036;-49
2022/07/16 11:47:32;;;;;;;5.30;2.33;;;;;;;;;;7662470;23;20032;-48
2022/07/16 11:50:33;;;;;;;7.37;2.53;;;;;;;;;;7660605;23;20021;-49
2022/07/16 11:53:37;;;;;;;6.10;2.23;;;;;;;;;;7662685;23;20087;-48
2022/07/16 11:56:40;;;;;;;7.43;2.05;;;;;;;;;;7663355;23;20459;-54
2022/07/16 11:59:47;;;;;;;6.57;2.15;;;;;;;;;;7661741;23;20029;-57
2022/07/16 12:02:55;;;;;;;6.00;2.15;;;;;;;;;;7664631;23;20048;-51
2022/07/16 12:06:00;;;;;;;3.72;2.15;;;;;;;;;;7663933;23;20899;-50
2022/07/16 12:09:02;;;;;;;5.30;2.35;;;;;;;;;;7662841;23;20041;-49
2022/07/16 12:12:06;;;;;;;4.40;2.03;;;;;;;;;;7662614;23;20021;-47
2022/07/16 12:15:12;;;;;;;4.55;2.20;;;;;;;;;;7662655;23;20031;-54
2022/07/16 12:18:14;;;;;;;5.65;2.42;;;;;;;;;;7659506;23;20099;-47
2022/07/16 12:21:28;;;;;;;6.18;2.70;;;;;;;;;;7661403;23;20036;-50
2022/07/16 12:24:29;;;;;;;4.80;2.13;;;;;;;;;;7661064;23;20456;-48
2022/07/16 12:27:50;;;;;;;5.40;2.03;;;;;;;;;;7660504;23;20025;-47
2022/07/16 12:31:01;;;;;;;7.35;2.50;;;;;;;;;;7661163;23;20021;-49
2022/07/16 12:34:03;;;;;;;5.72;2.10;;;;;;;;;;7660686;23;20532;-55
2022/07/16 12:37:12;;;;;;;7.38;3.22;;;;;;;;;;7663763;23;20017;-48
2022/07/16 12:40:13;;;;;;;6.45;2.10;;;;;;;;;;7661923;23;20102;-49
2022/07/16 12:43:14;;;;;;;3.93;2.33;;;;;;;;;;7664807;23;20429;-58
2022/07/16 12:46:17;;;;;;;6.13;2.40;;;;;;;;;;7665813;23;20021;-48
2022/07/16 12:49:22;;;;;;;6.32;2.05;;;;;;;;;;7663008;23;20024;-48
2022/07/16 12:52:23;;;;;;;7.25;2.40;;;;;;;;;;7664476;23;20021;-49
2022/07/16 12:58:48;;;;;;;4.22;2.08;;;;;;;;;;7662297;23;20096;-48
2022/07/16 13:01:50;;;;;;;7.05;2.53;;;;;;;;;;7665728;23;20028;-48
2022/07/16 13:04:50;;;;;;;5.78;2.10;;;;;;;;;;7665562;23;20059;-49
2022/07/16 13:07:51;;;;;;;3.90;1.90;;;;;;;;;;7663672;23;20533;-51
2022/07/16 13:10:52;;;;;;;4.57;2.03;;;;;;;;;;7665484;23;20072;-50
2022/07/16 13:13:53;;;;;;;5.27;2.10;;;;;;;;;;7665823;23;20029;-56
2022/07/16 13:16:53;;;;;;;5.90;2.53;;;;;;;;;;7664766;23;20032;-48
2022/07/16 13:19:54;;;;;;;4.97;2.00;;;;;;;;;;7636664;23;20023;-47
2022/07/16 13:22:54;;;;;;;7.30;2.20;;;;;;;;;;7663753;23;20091;-48
2022/07/16 13:25:55;;;;;;;3.40;1.80;;;;;;;;;;7664059;23;20017;-48
2022/07/16 13:28:56;;;;;;;4.77;2.00;;;;;;;;;;7663918;23;20100;-48
2022/07/16 13:31:56;;;;;;;3.70;1.90;;;;;;;;;;7666065;23;20524;-49
2022/07/16 13:34:57;;;;;;;5.90;2.20;;;;;;;;;;7664670;23;20028;-57
2022/07/16 13:37:57;;;;;;;5.57;1.97;;;;;;;;;;7663041;23;20020;-48
2022/07/16 13:40:58;;;;;;;3.33;2.10;;;;;;;;;;7666502;23;20020;-49
2022/07/16 13:43:59;;;;;;;5.60;1.80;;;;;;;;;;7666562;23;20444;-47
2022/07/16 13:46:59;;;;;;;6.33;2.30;;;;;;;;;;7663604;23;20032;-56
2022/07/16 13:50:00;;;;;;;3.47;2.03;;;;;;;;;;7672893;23;20251;-53
2022/07/16 13:53:01;;;;;;;4.23;2.23;;;;;;;;;;7661353;23;20048;-52
2022/07/16 13:56:02;;;;;;;4.00;2.07;;;;;;;;;;7662497;23;20921;-48
2022/07/16 13:59:03;;;;;;;5.47;2.10;;;;;;;;;;7661981;23;20041;-48
2022/07/16 14:02:03;;;;;;;4.30;1.80;;;;;;;;;;7661728;23;20464;-57
2022/07/16 14:05:05;;;;;;;8.87;2.30;;;;;;;;;;7662686;23;20518;-56
2022/07/16 14:08:06;;;;;;;3.88;1.80;;;;;;;;;;7661066;23;20017;-48
2022/07/16 14:11:07;;;;;;;4.30;1.77;;;;;;;;;;7662699;23;20109;-47
2022/07/16 14:14:07;;;;;;;5.00;1.90;;;;;;;;;;7663919;23;20016;-48
2022/07/16 14:17:08;;;;;;;3.83;1.70;;;;;;;;;;7663563;23;20096;-47
2022/07/16 14:20:12;;;;;;;3.13;1.40;;;;;;;;;;7663004;23;20013;-49
2022/07/16 14:23:12;;;;;;;6.25;1.60;;;;;;;;;;7670986;23;20100;-56
2022/07/16 14:26:13;;;;;;;3.97;1.57;;;;;;;;;;7670479;23;20016;-46
2022/07/16 14:29:14;;;;;;;4.10;1.90;;;;;;;;;;7672257;23;20340;-55
2022/07/16 14:32:14;;;;;;;2.37;1.33;;;;;;;;;;7668177;23;20540;-56
2022/07/16 14:35:16;;;;;;;4.27;1.70;;;;;;;;;;7666941;23;20108;-48
2022/07/16 14:38:16;;;;;;;5.60;1.47;;;;;;;;;;7666066;23;20333;-50
2022/07/16 14:41:17;;;;;;;4.27;1.70;;;;;;;;;;7669755;23;20251;-48
2022/07/16 14:44:18;;;;;;;4.10;1.67;;;;;;;;;;7680893;23;20023;-48
2022/07/16 14:47:18;;;;;;;4.17;1.70;;;;;;;;;;7665807;23;20029;-49
2022/07/16 14:50:20;;;;;;;4.27;1.70;;;;;;;;;;7667295;23;20021;-58
2022/07/16 14:53:20;;;;;;;;;;;;;;;;;;7665452;23;20096;-56
2022/07/16 14:56:21;;;;;;;4.40;1.60;;;;;;;;;;7663444;23;20271;-49
2022/07/16 14:59:21;;;;;;;3.50;1.70;;;;;;;;;;7678801;23;21047;-48
2022/07/16 15:02:22;;;;;;;3.93;1.80;;;;;;;;;;7668980;23;20013;-56
2022/07/16 15:05:23;;;;;;;7.47;2.00;;;;;;;;;;7665065;23;20016;-49
2022/07/16 15:08:23;;;;;;;7.83;1.70;;;;;;;;;;7666484;23;20088;-53
2022/07/16 15:11:24;;;;;;;3.80;1.63;;;;;;;;;;7666700;23;20380;-52
2022/07/16 15:14:24;;;;;;;7.83;3.00;;;;;;;;;;7668106;23;20084;-54
2022/07/16 15:17:25;;;;;;;5.47;2.57;;;;;;;;;;7667673;23;20013;-49
2022/07/16 15:20:25;;;;;;;5.53;2.27;;;;;;;;;;7668240;23;20536;-49
2022/07/16 15:23:26;;;;;;;9.27;2.10;;;;;;;;;;7668259;23;20119;-48
2022/07/16 15:26:26;;;;;;;3.80;1.60;;;;;;;;;;7666580;23;20059;-57
2022/07/16 15:29:27;;;;;;;5.57;2.80;;;;;;;;;;7667593;23;20029;-53
2022/07/16 15:32:29;;;;;;;6.32;3.00;;;;;;;;;;7667211;23;20028;-47
2022/07/16 15:35:29;;;;;;;6.03;2.15;;;;;;;;;;7667862;23;20017;-53
2022/07/16 15:38:30;;;;;;;5.53;1.90;;;;;;;;;;7668343;23;20088;-50
2022/07/16 15:41:30;;;;;;;4.13;2.23;;;;;;;;;;7666472;23;20024;-48
2022/07/16 15:44:31;;;;;;;5.82;2.10;;;;;;;;;;7667188;23;20302;-47
2022/07/16 15:47:32;;;;;;;6.20;2.75;;;;;;;;;;7668132;23;20340;-53
2022/07/16 15:50:33;;;;;;;10.13;2.20;;;;;;;;;;7679697;23;20049;-50
2022/07/16 15:53:34;;;;;;;5.78;3.00;;;;;;;;;;7666334;23;20032;-47
2022/07/16 15:56:34;;;;;;;7.60;2.17;;;;;;;;;;7666902;23;20091;-49
2022/07/16 15:59:37;;;;;;;4.45;2.17;;;;;;;;;;7667490;23;20027;-48
2022/07/16 16:02:37;;;;;;;5.45;2.17;;;;;;;;;;7666898;23;20024;-47
2022/07/16 16:05:39;;;;;;;5.82;2.38;;;;;;;;;;7663782;23;20067;-53
2022/07/16 16:08:39;;;;;;;4.55;2.50;;;;;;;;;;7666106;23;20017;-52
2022/07/16 16:11:40;;;;;;;7.13;2.70;;;;;;;;;;7667352;23;20052;-51
2022/07/16 16:14:41;;;;;;;5.32;2.80;;;;;;;;;;7665613;23;20092;-58
2022/07/16 16:17:42;;;;;;;4.70;2.53;;;;;;;;;;7666310;23;20017;-52
2022/07/16 16:20:42;;;;;;;5.70;3.10;;;;;;;;;;7667850;23;20024;-50
2022/07/16 16:23:43;;;;;;;6.55;3.20;;;;;;;;;;7667412;23;20021;-50
2022/07/16 16:26:43;;;;;;;6.30;3.17;;;;;;;;;;7664398;23;20028;-54
2022/07/16 16:29:44;;;;;;;6.18;2.70;;;;;;;;;;7665184;23;20044;-55
2022/07/16 16:32:44;;;;;;;4.57;2.40;;;;;;;;;;7667185;23;20284;-54
2022/07/16 16:35:46;;;;;;;3.97;2.10;;;;;;;;;;7666133;23;20100;-48
2022/07/16 16:38:46;;;;;;;5.45;2.08;;;;;;;;;;7676971;23;20033;-52
2022/07/16 16:41:47;;;;;;;7.50;3.15;;;;;;;;;;7667536;23;20047;-47
2022/07/16 16:44:48;;;;;;;5.05;2.30;;;;;;;;;;7667239;23;20021;-51
2022/07/16 16:47:48;;;;;;;4.30;2.07;;;;;;;;;;7666645;23;20378;-52
2022/07/16 16:50:49;;;;;;;5.47;2.88;;;;;;;;;;7667761;23;20063;-48
2022/07/16 16:53:50;;;;;;;4.00;2.25;;;;;;;;;;7667474;23;20032;-48
2022/07/16 16:56:50;;;;;;;5.93;2.45;;;;;;;;;;7666987;23;20092;-49
2022/07/16 16:59:51;;;;;;;4.68;2.42;;;;;;;;;;7665718;23;20600;-48
2022/07/16 17:02:51;;;;;;;4.15;2.03;;;;;;;;;;7664333;23;20100;-49
2022/07/16 17:05:52;;;;;;;5.75;2.42;;;;;;;;;;7666026;23;20396;-52
2022/07/16 17:08:55;;;;;;;4.05;2.10;;;;;;;;;;7666457;23;20020;-54
2022/07/16 17:11:56;;;;;;;4.53;2.40;;;;;;;;;;7666345;23;20247;-50
2022/07/16 17:14:57;;;;;;;6.70;2.70;;;;;;;;;;7665759;23;20025;-52
2022/07/16 17:17:58;;;;;;;6.37;2.93;;;;;;;;;;7664023;23;20372;-54
2022/07/16 17:20:59;;;;;;;5.35;2.60;;;;;;;;;;7677189;23;20079;-50
2022/07/16 17:24:00;;;;;;;5.93;2.67;;;;;;;;;;7671424;23;20332;-54
2022/07/16 17:27:00;;;;;;;5.70;3.17;;;;;;;;;;7673597;23;20103;-51
2022/07/16 17:30:01;;;;;;;6.17;3.00;;;;;;;;;;7669047;23;20017;-47
2022/07/16 17:33:01;;;;;;;5.57;3.63;;;;;;;;;;7665825;23;20345;-48
2022/07/16 17:36:02;;;;;;;10.67;5.90;;;;;;;;;;7668645;23;20025;-48
2022/07/16 17:39:04;;;;;;;5.80;3.13;;;;;;;;;;7666918;23;20017;-50
2022/07/16 17:42:04;;;;;;;4.20;2.50;;;;;;;;;;7668226;23;20052;-48
2022/07/16 17:45:06;;;;;;;7.03;3.42;;;;;;;;;;7667008;23;20583;-48
2022/07/16 17:48:07;;;;;;;5.85;3.08;;;;;;;;;;7668878;23;20427;-49
2022/07/16 17:51:07;;;;;;;4.55;2.75;;;;;;;;;;7667609;23;20083;-55
2022/07/16 17:54:08;;;;;;;12.43;7.47;;;;;;;;;;7667295;23;20433;-53
2022/07/16 17:57:09;;;;;;;16.55;10.23;;;;;;;;;;7666617;23;20047;-46
2022/07/16 18:00:12;;;;;;;6.65;4.60;;;;;;;;;;7666845;23;20037;-47
2022/07/16 18:03:13;;;;;;;5.78;3.40;;;;;;;;;;7668389;23;20052;-57
2022/07/16 18:06:14;;;;;;;12.07;7.35;;;;;;;;;;7669680;23;20017;-51
2022/07/16 18:09:14;;;;;;;6.85;3.20;;;;;;;;;;7672601;23;20099;-49
2022/07/16 18:12:15;;;;;;;6.60;3.30;;;;;;;;;;7658434;23;20091;-47
2022/07/16 18:15:17;;;;;;;7.80;3.20;;;;;;;;;;7658169;23;20027;-49
2022/07/16 18:18:17;;;;;;;5.03;3.00;;;;;;;;;;7655653;23;20125;-58
2022/07/16 18:21:18;;;;;;;7.35;3.53;;;;;;;;;;7654452;23;20017;-58
2022/07/16 18:24:19;;;;;;;7.22;4.10;;;;;;;;;;7658875;23;20699;-57